createdAt,value
2022-09-07T00:01:07.103Z,60.40
2022-09-07T00:04:09.752Z,60.45
2022-09-07T00:07:12.283Z,60.22
2022-09-07T00:10:15.496Z,60.43
2022-09-07T00:13:18.446Z,60.40
2022-09-07T00:16:22.673Z,60.42
2022-09-07T00:19:25.340Z,60.30
2022-09-07T00:22:27.794Z,60.41
2022-09-07T00:25:32.079Z,60.51
2022-09-07T00:28:35.065Z,60.51
2022-09-07T00:31:37.625Z,60.76
2022-09-07T00:34:40.161Z,60.68
2022-09-07T00:37:42.793Z,60.82
2022-09-07T00:40:45.446Z,60.80
2022-09-07T00:43:48.921Z,60.63
2022-09-07T00:46:51.690Z,60.76
2022-09-07T00:49:56.984Z,60.85
2022-09-07T00:53:02.920Z,60.94
2022-09-07T00:56:06.072Z,60.83
2022-09-07T00:59:09.221Z,60.92
2022-09-07T01:02:13.538Z,61.09
2022-09-07T01:05:19.933Z,61.17
2022-09-07T01:08:23.283Z,61.08
2022-09-07T01:11:25.983Z,61.23
2022-09-07T01:14:30.439Z,61.14
2022-09-07T01:17:37.996Z,61.53
2022-09-07T01:20:49.114Z,61.40
2022-09-07T01:24:08.951Z,61.43
2022-09-07T01:27:38.233Z,61.45
2022-09-07T01:30:46.070Z,61.47
2022-09-07T01:33:51.406Z,61.33
2022-09-07T01:36:57.250Z,61.46
2022-09-07T01:40:06.168Z,61.26
2022-09-07T01:43:12.788Z,61.44
2022-09-07T01:46:17.409Z,61.45
2022-09-07T01:49:21.735Z,61.39
2022-09-07T01:52:29.296Z,61.53
2022-09-07T01:55:33.825Z,61.86
2022-09-07T01:58:39.129Z,61.72
2022-09-07T02:01:44.643Z,61.88
2022-09-07T02:04:50.155Z,61.85
2022-09-07T02:07:58.072Z,61.66
2022-09-07T02:11:03.487Z,61.56
2022-09-07T02:14:10.485Z,61.79
2022-09-07T02:17:16.618Z,61.54
2022-09-07T02:20:21.442Z,61.55
2022-09-07T02:23:25.920Z,61.48
2022-09-07T02:26:29.196Z,61.37
2022-09-07T02:29:32.165Z,61.31
2022-09-07T02:32:34.782Z,61.55
2022-09-07T02:35:37.700Z,61.68
2022-09-07T02:38:40.397Z,61.67
2022-09-07T02:41:43.975Z,61.64
2022-09-07T02:44:47.637Z,61.48
2022-09-07T02:47:59.855Z,61.55
2022-09-07T02:51:07.620Z,61.76
2022-09-07T02:54:19.509Z,61.90
2022-09-07T02:57:25.915Z,62.11
2022-09-07T03:00:30.692Z,62.37
2022-09-07T03:03:38.471Z,61.94
2022-09-07T03:06:43.542Z,61.94
2022-09-07T03:09:48.977Z,62.06
2022-09-07T03:12:51.652Z,62.01
2022-09-07T03:15:56.306Z,62.09
2022-09-07T03:18:59.340Z,62.04
2022-09-07T03:22:02.141Z,61.94
2022-09-07T03:25:06.012Z,62.12
2022-09-07T03:28:08.728Z,61.95
2022-09-07T03:31:11.739Z,62.08
2022-09-07T03:34:14.603Z,62.19
2022-09-07T03:37:17.311Z,62.10
2022-09-07T03:40:20.191Z,62.20
2022-09-07T03:43:23.966Z,62.24
2022-09-07T03:46:26.680Z,62.50
2022-09-07T03:49:29.380Z,63.17
2022-09-07T03:52:32.039Z,70.89
2022-09-07T03:55:34.607Z,66.68
2022-09-07T03:58:38.215Z,60.36
2022-09-07T04:01:40.812Z,56.07
2022-09-07T04:04:45.364Z,56.09
2022-09-07T04:07:48.530Z,56.80
2022-09-07T04:10:51.190Z,57.88
2022-09-07T04:13:53.684Z,58.59
2022-09-07T04:16:56.331Z,59.40
2022-09-07T04:19:59.106Z,59.71
2022-09-07T04:23:03.966Z,60.04
2022-09-07T04:26:06.938Z,60.61
2022-09-07T04:29:10.086Z,60.89
2022-09-07T04:32:15.794Z,61.79
2022-09-07T04:35:18.798Z,62.56
2022-09-07T04:38:21.344Z,62.91
2022-09-07T04:41:24.020Z,58.20
2022-09-07T04:44:26.662Z,56.87
2022-09-07T04:47:30.154Z,57.22
2022-09-07T04:50:32.793Z,57.18
2022-09-07T04:53:35.924Z,57.23
2022-09-07T04:56:38.691Z,56.88
2022-09-07T04:59:41.146Z,56.93
2022-09-07T05:02:43.943Z,56.40
2022-09-07T05:05:46.834Z,56.50
2022-09-07T05:08:50.244Z,56.35
2022-09-07T05:11:53.485Z,56.28
2022-09-07T05:14:56.523Z,56.20
2022-09-07T05:17:59.214Z,56.23
2022-09-07T05:21:07.928Z,55.97
2022-09-07T05:24:10.569Z,55.77
2022-09-07T05:27:13.580Z,55.93
2022-09-07T05:37:02.046Z,55.57
2022-09-07T05:40:06.987Z,55.46
2022-09-07T05:43:09.832Z,55.41
2022-09-07T05:46:13.050Z,55.47
2022-09-07T05:49:15.663Z,55.60
2022-09-07T05:52:18.281Z,55.47
2022-09-07T05:55:29.758Z,55.49
2022-09-07T05:58:33.206Z,55.50
2022-09-07T06:01:35.845Z,55.36
2022-09-07T06:04:38.314Z,55.25
2022-09-07T06:07:40.912Z,54.54
2022-09-07T06:10:44.273Z,54.24
2022-09-07T06:13:47.792Z,53.97
2022-09-07T06:16:50.421Z,53.08
2022-09-07T06:19:54.449Z,53.12
2022-09-07T06:22:56.993Z,53.02
2022-09-07T06:25:59.599Z,52.98
2022-09-07T06:29:03.108Z,53.21
2022-09-07T06:35:28.524Z,53.03
2022-09-07T06:38:32.096Z,52.81
2022-09-07T06:44:58.753Z,52.34
2022-09-07T06:48:01.370Z,51.87
2022-09-07T06:51:05.282Z,51.68
2022-09-07T06:57:32.057Z,51.47
2022-09-07T07:00:34.658Z,51.27
2022-09-07T07:03:37.363Z,51.04
2022-09-07T07:06:40.161Z,51.30
2022-09-07T07:09:42.666Z,50.82
2022-09-07T07:12:45.195Z,50.84
2022-09-07T07:15:47.827Z,50.48
2022-09-07T07:18:54.217Z,49.81
2022-09-07T07:25:20.050Z,49.54
2022-09-07T07:31:48.021Z,49.17
2022-09-07T07:34:50.566Z,49.14
2022-09-07T07:44:39.579Z,46.99
2022-09-07T07:47:42.197Z,46.78
2022-09-07T07:50:44.692Z,46.70
2022-09-07T07:53:47.212Z,45.83
2022-09-07T07:56:49.905Z,45.63
2022-09-07T07:59:52.323Z,45.60
2022-09-07T08:02:54.856Z,45.19
2022-09-07T08:06:04.251Z,45.46
2022-09-07T08:09:07.086Z,45.67
2022-09-07T08:12:11.674Z,45.14
2022-09-07T08:15:14.214Z,44.94
2022-09-07T08:18:16.887Z,45.16
2022-09-07T08:21:19.484Z,44.56
2022-09-07T08:24:22.033Z,43.46
2022-09-07T08:27:24.730Z,42.34
2022-09-07T08:30:27.167Z,42.72
2022-09-07T08:33:29.847Z,42.66
2022-09-07T08:36:32.398Z,43.02
2022-09-07T08:39:36.097Z,43.06
2022-09-07T08:42:45.293Z,42.96
2022-09-07T08:45:50.177Z,42.55
2022-09-07T08:48:52.928Z,42.62
2022-09-07T08:51:58.475Z,41.26
2022-09-07T08:55:02.390Z,40.99
2022-09-07T08:58:21.914Z,40.95
2022-09-07T09:01:35.480Z,41.27
2022-09-07T09:05:16.217Z,40.95
2022-09-07T09:08:10.018Z,40.46
2022-09-07T09:11:19.326Z,40.07
2022-09-07T09:14:27.927Z,39.55
2022-09-07T09:17:34.384Z,39.84
2022-09-07T09:20:41.646Z,39.79
2022-09-07T09:23:46.044Z,39.85
2022-09-07T09:26:52.261Z,39.26
2022-09-07T09:29:54.842Z,38.01
2022-09-07T09:33:11.870Z,37.85
2022-09-07T09:36:25.359Z,37.07
2022-09-07T09:39:31.541Z,36.72
2022-09-07T09:42:35.302Z,36.49
2022-09-07T09:49:16.279Z,36.10
2022-09-07T09:52:30.479Z,36.74
2022-09-07T09:55:36.097Z,36.19
2022-09-07T10:05:47.960Z,35.87
2022-09-07T10:08:55.087Z,35.95
2022-09-07T10:12:06.738Z,35.97
2022-09-07T10:15:25.545Z,34.50
2022-09-07T10:18:33.440Z,34.95
2022-09-07T10:21:36.148Z,35.24
2022-09-07T10:24:39.355Z,35.54
2022-09-07T10:27:45.326Z,34.98
2022-09-07T10:30:55.935Z,35.07
2022-09-07T10:37:31.471Z,34.21
2022-09-07T10:40:35.432Z,34.16
2022-09-07T10:43:41.921Z,34.37
2022-09-07T10:46:57.620Z,33.75
2022-09-07T10:53:41.889Z,33.55
2022-09-07T10:56:50.965Z,33.31
2022-09-07T11:00:07.940Z,33.21
2022-09-07T11:03:28.543Z,32.48
2022-09-07T11:06:35.339Z,32.65
2022-09-07T11:09:54.616Z,32.81
2022-09-07T11:12:59.418Z,32.68
2022-09-07T11:16:04.889Z,32.76
2022-09-07T11:22:38.327Z,32.05
2022-09-07T11:25:46.542Z,32.48
2022-09-07T11:29:29.063Z,32.28
2022-09-07T11:32:19.743Z,32.70
2022-09-07T11:35:29.101Z,32.29
2022-09-07T11:38:33.823Z,32.68
2022-09-07T11:41:40.130Z,32.37
2022-09-07T11:44:45.720Z,31.44
2022-09-07T11:47:50.683Z,32.02
2022-09-07T11:50:56.828Z,30.74
2022-09-07T11:54:00.738Z,31.67
2022-09-07T11:57:12.136Z,30.92
2022-09-07T12:00:18.357Z,30.92
2022-09-07T12:03:30.842Z,31.33
2022-09-07T12:06:57.138Z,31.62
2022-09-07T12:10:28.101Z,31.62
2022-09-07T12:13:35.849Z,30.62
2022-09-07T12:16:51.984Z,30.54
2022-09-07T12:20:10.277Z,30.97
2022-09-07T12:23:21.742Z,31.20
2022-09-07T12:26:38.707Z,31.41
2022-09-07T12:29:45.147Z,31.52
2022-09-07T12:33:03.692Z,30.61
2022-09-07T12:36:24.318Z,30.93
2022-09-07T12:39:27.965Z,31.07
2022-09-07T12:42:32.284Z,31.22
2022-09-07T12:45:50.011Z,31.21
2022-09-07T12:48:58.096Z,30.44
2022-09-07T12:52:15.475Z,30.62
2022-09-07T12:55:28.933Z,30.35
2022-09-07T12:58:38.710Z,30.96
2022-09-07T13:01:46.137Z,31.42
2022-09-07T13:04:58.554Z,31.42
2022-09-07T13:08:10.878Z,31.40
2022-09-07T13:11:25.437Z,30.91
2022-09-07T13:14:29.109Z,30.79
2022-09-07T13:17:42.739Z,30.91
2022-09-07T13:20:46.173Z,29.87
2022-09-07T13:27:43.522Z,30.42
2022-09-07T13:30:52.827Z,30.78
2022-09-07T13:33:56.593Z,30.89
2022-09-07T13:37:00.079Z,31.05
2022-09-07T13:40:08.632Z,31.43
2022-09-07T13:43:14.988Z,31.46
2022-09-07T13:46:29.810Z,31.17
2022-09-07T13:49:38.062Z,30.79
2022-09-07T13:52:46.760Z,29.98
2022-09-07T13:55:52.989Z,30.66
2022-09-07T13:58:56.148Z,31.09
2022-09-07T14:01:59.423Z,30.84
2022-09-07T14:05:02.612Z,31.13
2022-09-07T14:08:05.250Z,31.58
2022-09-07T14:11:17.009Z,31.82
2022-09-07T14:14:20.759Z,31.24
2022-09-07T14:17:23.533Z,30.23
2022-09-07T14:20:26.255Z,30.65
2022-09-07T14:23:30.940Z,31.00
2022-09-07T14:26:35.148Z,31.22
2022-09-07T14:29:37.653Z,31.50
2022-09-07T14:32:40.878Z,31.80
2022-09-07T14:35:43.839Z,31.37
2022-09-07T14:42:11.965Z,31.52
2022-09-07T14:45:19.866Z,31.23
2022-09-07T14:48:29.279Z,31.41
2022-09-07T14:51:36.516Z,31.40
2022-09-07T14:54:39.631Z,31.37
2022-09-07T14:57:42.237Z,31.18
2022-09-07T15:00:46.102Z,31.02
2022-09-07T15:03:54.510Z,31.23
2022-09-07T15:07:04.324Z,30.82
2022-09-07T15:10:14.268Z,30.20
2022-09-07T15:13:24.650Z,29.93
2022-09-07T15:16:28.197Z,29.34
2022-09-07T15:19:32.375Z,29.20
2022-09-07T15:22:35.390Z,29.20
2022-09-07T15:25:38.423Z,29.57
2022-09-07T15:32:08.933Z,29.34
2022-09-07T15:35:11.614Z,29.63
2022-09-07T15:41:36.832Z,28.63
2022-09-07T15:44:39.500Z,28.36
2022-09-07T15:47:46.968Z,28.56
2022-09-07T15:50:50.719Z,28.97
2022-09-07T15:54:12.726Z,29.38
2022-09-07T16:00:38.275Z,30.73
2022-09-07T16:03:40.891Z,31.51
2022-09-07T16:06:43.588Z,31.63
2022-09-07T16:09:46.330Z,31.64
2022-09-07T16:13:10.841Z,31.42
2022-09-07T16:16:15.715Z,30.88
2022-09-07T16:19:21.782Z,30.41
2022-09-07T16:25:58.415Z,30.62
2022-09-07T16:29:01.650Z,30.75
2022-09-07T16:35:27.063Z,31.29
2022-09-07T16:38:46.744Z,31.48
2022-09-07T16:41:49.494Z,31.86
2022-09-07T16:44:52.585Z,31.99
2022-09-07T16:47:56.786Z,32.11
2022-09-07T16:51:02.364Z,32.19
2022-09-07T16:54:05.728Z,32.36
2022-09-07T16:57:08.418Z,32.90
2022-09-07T17:00:12.656Z,33.13
2022-09-07T17:03:15.198Z,33.67
2022-09-07T17:06:18.773Z,34.27
2022-09-07T17:09:25.670Z,34.32
2022-09-07T17:12:28.249Z,34.94
2022-09-07T17:15:33.058Z,35.22
2022-09-07T17:21:59.405Z,36.42
2022-09-07T17:25:02.298Z,36.94
2022-09-07T17:28:04.770Z,37.72
2022-09-07T17:31:08.377Z,38.07
2022-09-07T17:34:12.458Z,38.48
2022-09-07T17:37:15.197Z,38.92
2022-09-07T17:40:18.155Z,39.78
2022-09-07T17:46:43.860Z,39.83
2022-09-07T17:49:46.615Z,40.83
2022-09-07T17:52:53.032Z,41.17
2022-09-07T17:55:56.019Z,41.19
2022-09-07T18:02:21.517Z,41.31
2022-09-07T18:05:24.170Z,41.52
2022-09-07T18:08:27.325Z,41.58
2022-09-07T18:11:47.664Z,42.12
2022-09-07T18:14:51.513Z,42.06
2022-09-07T18:17:54.054Z,42.01
2022-09-07T18:20:56.734Z,41.98
2022-09-07T18:24:00.427Z,42.30
2022-09-07T18:27:03.656Z,41.96
2022-09-07T18:30:07.767Z,41.92
2022-09-07T18:33:10.824Z,42.31
2022-09-07T18:36:14.779Z,42.55
2022-09-07T18:39:17.607Z,42.56
2022-09-07T18:42:20.217Z,42.68
2022-09-07T18:45:29.713Z,42.82
2022-09-07T18:48:32.711Z,43.09
2022-09-07T18:52:51.509Z,43.00
2022-09-07T18:54:57.898Z,42.93
2022-09-07T18:58:02.232Z,43.03
2022-09-07T19:01:05.554Z,43.14
2022-09-07T19:04:08.218Z,42.92
2022-09-07T19:07:11.599Z,43.14
2022-09-07T19:10:16.219Z,43.20
2022-09-07T19:13:18.649Z,43.22
2022-09-07T19:16:21.193Z,43.20
2022-09-07T19:19:24.174Z,43.10
2022-09-07T19:22:26.835Z,42.99
2022-09-07T19:25:29.722Z,43.15
2022-09-07T19:28:32.977Z,42.93
2022-09-07T19:31:35.789Z,43.08
2022-09-07T19:34:38.867Z,43.08
2022-09-07T19:37:41.629Z,43.00
2022-09-07T19:40:45.387Z,43.10
2022-09-07T19:43:48.143Z,43.11
2022-09-07T19:46:51.285Z,43.10
2022-09-07T19:49:53.851Z,43.22
2022-09-07T19:52:56.421Z,43.32
2022-09-07T19:56:06.440Z,43.35
2022-09-07T19:59:09.377Z,43.46
2022-09-07T20:02:12.869Z,43.53
2022-09-07T20:05:15.714Z,43.72
2022-09-07T20:08:18.387Z,43.82
2022-09-07T20:11:21.071Z,43.87
2022-09-07T20:14:23.975Z,43.81
2022-09-07T20:17:26.459Z,44.01
2022-09-07T20:20:29.172Z,44.00
2022-09-07T20:23:32.401Z,43.96
2022-09-07T20:26:34.840Z,44.04
2022-09-07T20:29:38.026Z,44.17
2022-09-07T20:32:40.625Z,44.32
2022-09-07T20:35:43.448Z,44.46
2022-09-07T20:38:47.006Z,44.83
2022-09-07T20:41:50.076Z,44.70
2022-09-07T20:44:53.021Z,45.02
2022-09-07T20:47:55.595Z,45.29
2022-09-07T20:50:58.986Z,45.64
2022-09-07T20:54:01.465Z,45.42
2022-09-07T20:57:04.422Z,45.24
2022-09-07T21:00:08.162Z,45.69
2022-09-07T21:03:10.743Z,46.17
2022-09-07T21:06:13.352Z,46.08
2022-09-07T21:09:16.139Z,46.38
2022-09-07T21:12:18.766Z,46.46
2022-09-07T21:15:21.352Z,46.15
2022-09-07T21:18:24.850Z,45.90
2022-09-07T21:21:27.900Z,46.20
2022-09-07T21:24:30.510Z,46.75
2022-09-07T21:27:38.530Z,47.24
2022-09-07T21:30:41.486Z,47.57
2022-09-07T21:33:44.029Z,47.66
2022-09-07T21:36:46.843Z,47.82
2022-09-07T21:39:49.714Z,48.24
2022-09-07T21:42:52.335Z,48.04
2022-09-07T21:45:54.975Z,48.20
2022-09-07T21:48:58.217Z,48.26
2022-09-07T21:52:00.740Z,48.34
2022-09-07T21:55:03.558Z,48.35
2022-09-07T21:58:06.163Z,48.50
2022-09-07T22:01:10.776Z,48.83
2022-09-07T22:04:14.228Z,48.89
2022-09-07T22:07:16.912Z,48.54
2022-09-07T22:10:19.497Z,48.88
2022-09-07T22:13:22.097Z,48.41
2022-09-07T22:16:24.809Z,48.65
2022-09-07T22:19:27.669Z,48.80
2022-09-07T22:22:30.190Z,49.29
2022-09-07T22:25:32.786Z,49.41
2022-09-07T22:28:35.781Z,49.27
2022-09-07T22:31:39.106Z,49.33
2022-09-07T22:34:41.713Z,49.55
2022-09-07T22:37:44.606Z,49.63
2022-09-07T22:40:47.755Z,49.73
2022-09-07T22:43:50.582Z,49.75
2022-09-07T22:46:53.484Z,49.87
2022-09-07T22:49:55.981Z,49.79
2022-09-07T22:52:58.606Z,49.86
2022-09-07T22:56:04.661Z,50.18
2022-09-07T22:59:08.254Z,50.19
2022-09-07T23:02:11.167Z,49.99
2022-09-07T23:05:13.932Z,50.10
2022-09-07T23:08:16.506Z,50.15
2022-09-07T23:11:20.104Z,49.97
2022-09-07T23:14:23.178Z,49.94
2022-09-07T23:17:26.300Z,50.10
2022-09-07T23:20:28.832Z,49.96
2022-09-07T23:23:31.561Z,50.00
2022-09-07T23:26:34.412Z,50.18
2022-09-07T23:29:36.945Z,50.18
2022-09-07T23:32:39.442Z,50.04
2022-09-07T23:35:42.477Z,50.31
2022-09-07T23:38:45.144Z,50.27
2022-09-07T23:41:47.794Z,50.22
2022-09-07T23:44:50.320Z,50.20
2022-09-07T23:47:53.365Z,50.50
2022-09-07T23:50:55.933Z,50.43
2022-09-07T23:53:58.773Z,50.52
2022-09-07T23:57:01.616Z,50.58
